sensor_id;sensor_type;location;lat;lon;timestamp;temperature;humidity
3876;DHT22;1953;51.222;6.624;2022-09-27T00:00:00;12.30;1.00
3876;DHT22;1953;51.222;6.624;2022-09-27T00:07:08;12.00;1.00
3876;DHT22;1953;51.222;6.624;2022-09-27T00:11:51;11.90;1.00
3876;DHT22;1953;51.222;6.624;2022-09-27T00:16:36;12.10;1.00
3876;DHT22;1953;51.222;6.624;2022-09-27T00:21:19;12.00;1.00
3876;DHT22;1953;51.222;6.624;2022-09-27T00:26:04;12.10;1.00
3876;DHT22;1953;51.222;6.624;2022-09-27T00:30:47;12.00;1.00
3876;DHT22;1953;51.222;6.624;2022-09-27T00:35:30;11.90;1.00
3876;DHT22;1953;51.222;6.624;2022-09-27T00:40:13;12.00;1.00
3876;DHT22;1953;51.222;6.624;2022-09-27T00:45:04;12.00;1.00
3876;DHT22;1953;51.222;6.624;2022-09-27T00:49:49;11.90;1.00
3876;DHT22;1953;51.222;6.624;2022-09-27T00:54:35;11.80;1.00
3876;DHT22;1953;51.222;6.624;2022-09-27T00:59:21;11.80;1.00
3876;DHT22;1953;51.222;6.624;2022-09-27T01:04:09;11.90;1.00
3876;DHT22;1953;51.222;6.624;2022-09-27T01:08:52;11.90;1.00
3876;DHT22;1953;51.222;6.624;2022-09-27T01:13:42;11.90;1.00
3876;DHT22;1953;51.222;6.624;2022-09-27T01:18:30;11.80;1.00
3876;DHT22;1953;51.222;6.624;2022-09-27T01:23:40;11.90;1.00
3876;DHT22;1953;51.222;6.624;2022-09-27T01:28:37;11.90;1.00
3876;DHT22;1953;51.222;6.624;2022-09-27T01:33:33;11.80;1.00
3876;DHT22;1953;51.222;6.624;2022-09-27T01:38:23;11.80;1.00
3876;DHT22;1953;51.222;6.624;2022-09-27T01:43:13;11.80;1.00
3876;DHT22;1953;51.222;6.624;2022-09-27T01:47:58;11.90;1.00
3876;DHT22;1953;51.222;6.624;2022-09-27T01:52:47;11.90;1.00
3876;DHT22;1953;51.222;6.624;2022-09-27T01:57:34;11.90;1.00
3876;DHT22;1953;51.222;6.624;2022-09-27T02:02:21;11.90;1.00
3876;DHT22;1953;51.222;6.624;2022-09-27T02:07:10;11.80;1.00
3876;DHT22;1953;51.222;6.624;2022-09-27T02:11:59;11.80;1.00
3876;DHT22;1953;51.222;6.624;2022-09-27T02:16:49;11.80;1.00
3876;DHT22;1953;51.222;6.624;2022-09-27T02:21:41;11.80;1.00
3876;DHT22;1953;51.222;6.624;2022-09-27T02:26:31;11.80;1.00
3876;DHT22;1953;51.222;6.624;2022-09-27T02:31:15;11.80;1.00
3876;DHT22;1953;51.222;6.624;2022-09-27T02:35:58;11.70;1.00
3876;DHT22;1953;51.222;6.624;2022-09-27T02:40:42;11.80;1.00
3876;DHT22;1953;51.222;6.624;2022-09-27T02:45:27;11.80;1.00
3876;DHT22;1953;51.222;6.624;2022-09-27T02:55:27;11.80;1.00
3876;DHT22;1953;51.222;6.624;2022-09-27T03:00:15;11.80;1.00
3876;DHT22;1953;51.222;6.624;2022-09-27T03:05:00;11.60;1.00
3876;DHT22;1953;51.222;6.624;2022-09-27T03:09:47;11.50;1.00
3876;DHT22;1953;51.222;6.624;2022-09-27T03:14:30;11.40;1.00
3876;DHT22;1953;51.222;6.624;2022-09-27T03:19:12;11.40;1.00
3876;DHT22;1953;51.222;6.624;2022-09-27T03:23:55;11.30;1.00
3876;DHT22;1953;51.222;6.624;2022-09-27T03:28:41;11.20;1.00
3876;DHT22;1953;51.222;6.624;2022-09-27T03:33:24;11.10;1.00
3876;DHT22;1953;51.222;6.624;2022-09-27T03:38:09;11.10;1.00
3876;DHT22;1953;51.222;6.624;2022-09-27T03:42:52;11.10;1.00
3876;DHT22;1953;51.222;6.624;2022-09-27T03:47:39;11.00;1.00
3876;DHT22;1953;51.222;6.624;2022-09-27T03:52:21;10.90;1.00
3876;DHT22;1953;51.222;6.624;2022-09-27T03:57:03;10.80;1.00
3876;DHT22;1953;51.222;6.624;2022-09-27T04:01:46;10.90;1.00
3876;DHT22;1953;51.222;6.624;2022-09-27T04:06:30;10.80;1.00
3876;DHT22;1953;51.222;6.624;2022-09-27T04:11:15;10.80;1.00
3876;DHT22;1953;51.222;6.624;2022-09-27T04:15:57;10.80;1.00
3876;DHT22;1953;51.222;6.624;2022-09-27T04:20:40;10.70;1.00
3876;DHT22;1953;51.222;6.624;2022-09-27T04:25:24;10.70;1.00
3876;DHT22;1953;51.222;6.624;2022-09-27T04:30:09;10.70;1.00
3876;DHT22;1953;51.222;6.624;2022-09-27T04:34:51;10.70;1.00
3876;DHT22;1953;51.222;6.624;2022-09-27T04:39:51;10.80;1.00
3876;DHT22;1953;51.222;6.624;2022-09-27T04:44:35;10.70;1.00
3876;DHT22;1953;51.222;6.624;2022-09-27T04:49:17;10.80;1.00
3876;DHT22;1953;51.222;6.624;2022-09-27T04:54:00;10.80;1.00
3876;DHT22;1953;51.222;6.624;2022-09-27T04:58:43;10.80;1.00
3876;DHT22;1953;51.222;6.624;2022-09-27T05:03:26;10.70;1.00
3876;DHT22;1953;51.222;6.624;2022-09-27T05:08:09;10.70;1.00
3876;DHT22;1953;51.222;6.624;2022-09-27T05:12:52;10.60;1.00
3876;DHT22;1953;51.222;6.624;2022-09-27T05:17:34;10.60;1.00
3876;DHT22;1953;51.222;6.624;2022-09-27T05:22:18;10.50;1.00
3876;DHT22;1953;51.222;6.624;2022-09-27T05:27:01;10.60;1.00
3876;DHT22;1953;51.222;6.624;2022-09-27T05:31:44;10.60;1.00
3876;DHT22;1953;51.222;6.624;2022-09-27T05:36:27;10.60;1.00
3876;DHT22;1953;51.222;6.624;2022-09-27T05:41:12;10.70;1.00
3876;DHT22;1953;51.222;6.624;2022-09-27T05:45:54;10.60;1.00
3876;DHT22;1953;51.222;6.624;2022-09-27T05:50:37;10.70;1.00
3876;DHT22;1953;51.222;6.624;2022-09-27T05:55:20;10.70;1.00
3876;DHT22;1953;51.222;6.624;2022-09-27T06:00:05;10.70;1.00
3876;DHT22;1953;51.222;6.624;2022-09-27T06:04:48;10.80;1.00
3876;DHT22;1953;51.222;6.624;2022-09-27T06:09:30;10.80;1.00
3876;DHT22;1953;51.222;6.624;2022-09-27T06:14:13;10.90;1.00
3876;DHT22;1953;51.222;6.624;2022-09-27T06:18:57;10.90;1.00
3876;DHT22;1953;51.222;6.624;2022-09-27T06:23:39;10.90;1.00
3876;DHT22;1953;51.222;6.624;2022-09-27T06:28:22;11.00;1.00
3876;DHT22;1953;51.222;6.624;2022-09-27T06:33:05;10.90;1.00
3876;DHT22;1953;51.222;6.624;2022-09-27T06:37:49;11.00;1.00
3876;DHT22;1953;51.222;6.624;2022-09-27T06:42:31;11.00;1.00
3876;DHT22;1953;51.222;6.624;2022-09-27T06:47:14;11.00;1.00
3876;DHT22;1953;51.222;6.624;2022-09-27T06:51:56;11.00;1.00
3876;DHT22;1953;51.222;6.624;2022-09-27T06:56:41;10.90;1.00
3876;DHT22;1953;51.222;6.624;2022-09-27T07:01:26;10.90;1.00
3876;DHT22;1953;51.222;6.624;2022-09-27T07:06:15;10.90;1.00
3876;DHT22;1953;51.222;6.624;2022-09-27T07:11:02;10.90;1.00
3876;DHT22;1953;51.222;6.624;2022-09-27T07:15:46;11.00;1.00
3876;DHT22;1953;51.222;6.624;2022-09-27T07:20:29;10.90;1.00
3876;DHT22;1953;51.222;6.624;2022-09-27T07:25:12;11.00;1.00
3876;DHT22;1953;51.222;6.624;2022-09-27T07:29:55;11.00;1.00
3876;DHT22;1953;51.222;6.624;2022-09-27T07:34:38;11.10;1.00
3876;DHT22;1953;51.222;6.624;2022-09-27T07:39:21;11.20;1.00
3876;DHT22;1953;51.222;6.624;2022-09-27T07:44:04;11.10;1.00
3876;DHT22;1953;51.222;6.624;2022-09-27T07:48:50;11.10;1.00
3876;DHT22;1953;51.222;6.624;2022-09-27T07:53:34;11.20;1.00
3876;DHT22;1953;51.222;6.624;2022-09-27T07:58:16;11.30;1.00
3876;DHT22;1953;51.222;6.624;2022-09-27T08:03:03;11.20;1.00
3876;DHT22;1953;51.222;6.624;2022-09-27T08:07:47;11.30;1.00
3876;DHT22;1953;51.222;6.624;2022-09-27T08:12:31;11.40;1.00
3876;DHT22;1953;51.222;6.624;2022-09-27T08:17:13;11.50;1.00
3876;DHT22;1953;51.222;6.624;2022-09-27T08:21:56;11.50;1.00
3876;DHT22;1953;51.222;6.624;2022-09-27T08:26:39;11.70;1.00
3876;DHT22;1953;51.222;6.624;2022-09-27T08:31:23;11.70;1.00
3876;DHT22;1953;51.222;6.624;2022-09-27T08:36:10;11.60;1.00
3876;DHT22;1953;51.222;6.624;2022-09-27T08:40:55;11.70;1.00
3876;DHT22;1953;51.222;6.624;2022-09-27T08:45:44;11.90;1.00
3876;DHT22;1953;51.222;6.624;2022-09-27T08:50:37;11.90;1.00
3876;DHT22;1953;51.222;6.624;2022-09-27T08:55:26;11.80;1.00
3876;DHT22;1953;51.222;6.624;2022-09-27T09:00:12;11.80;1.00
3876;DHT22;1953;51.222;6.624;2022-09-27T09:04:59;11.90;1.00
3876;DHT22;1953;51.222;6.624;2022-09-27T09:09:52;12.00;1.00
3876;DHT22;1953;51.222;6.624;2022-09-27T09:20:00;12.30;1.00
3876;DHT22;1953;51.222;6.624;2022-09-27T09:24:57;12.40;1.00
3876;DHT22;1953;51.222;6.624;2022-09-27T09:30:02;12.50;1.00
3876;DHT22;1953;51.222;6.624;2022-09-27T09:34:50;12.60;1.00
3876;DHT22;1953;51.222;6.624;2022-09-27T09:39:37;12.60;1.00
3876;DHT22;1953;51.222;6.624;2022-09-27T09:44:26;12.60;1.00
3876;DHT22;1953;51.222;6.624;2022-09-27T09:49:14;12.70;1.00
3876;DHT22;1953;51.222;6.624;2022-09-27T09:54:01;12.90;1.00
3876;DHT22;1953;51.222;6.624;2022-09-27T09:58:50;13.10;1.00
3876;DHT22;1953;51.222;6.624;2022-09-27T10:03:35;13.20;1.00
3876;DHT22;1953;51.222;6.624;2022-09-27T10:08:19;13.10;1.00
3876;DHT22;1953;51.222;6.624;2022-09-27T10:13:03;13.10;1.00
3876;DHT22;1953;51.222;6.624;2022-09-27T10:17:48;13.00;1.00
3876;DHT22;1953;51.222;6.624;2022-09-27T10:22:35;12.90;1.00
3876;DHT22;1953;51.222;6.624;2022-09-27T10:27:19;12.70;1.00
3876;DHT22;1953;51.222;6.624;2022-09-27T10:32:03;12.60;1.00
3876;DHT22;1953;51.222;6.624;2022-09-27T10:37:01;12.60;1.00
3876;DHT22;1953;51.222;6.624;2022-09-27T10:41:46;12.70;1.00
3876;DHT22;1953;51.222;6.624;2022-09-27T10:46:32;12.70;1.00
3876;DHT22;1953;51.222;6.624;2022-09-27T10:51:24;12.60;1.00
3876;DHT22;1953;51.222;6.624;2022-09-27T10:56:20;12.50;1.00
3876;DHT22;1953;51.222;6.624;2022-09-27T11:01:06;12.70;1.00
3876;DHT22;1953;51.222;6.624;2022-09-27T11:05:50;12.80;1.00
3876;DHT22;1953;51.222;6.624;2022-09-27T11:10:35;12.80;1.00
3876;DHT22;1953;51.222;6.624;2022-09-27T11:15:20;12.70;1.00
3876;DHT22;1953;51.222;6.624;2022-09-27T11:20:14;12.90;1.00
3876;DHT22;1953;51.222;6.624;2022-09-27T11:25:10;13.00;1.00
3876;DHT22;1953;51.222;6.624;2022-09-27T11:30:04;13.20;1.00
3876;DHT22;1953;51.222;6.624;2022-09-27T11:35:23;13.20;1.00
3876;DHT22;1953;51.222;6.624;2022-09-27T11:40:17;13.20;1.00
3876;DHT22;1953;51.222;6.624;2022-09-27T11:45:19;13.30;1.00
3876;DHT22;1953;51.222;6.624;2022-09-27T11:55:26;13.50;1.00
3876;DHT22;1953;51.222;6.624;2022-09-27T12:00:18;13.10;1.00
3876;DHT22;1953;51.222;6.624;2022-09-27T12:08:22;13.00;1.00
3876;DHT22;1953;51.222;6.624;2022-09-27T12:13:07;13.10;1.00
3876;DHT22;1953;51.222;6.624;2022-09-27T12:17:55;13.00;1.00
3876;DHT22;1953;51.222;6.624;2022-09-27T12:22:53;13.00;1.00
3876;DHT22;1953;51.222;6.624;2022-09-27T12:27:42;13.10;1.00
3876;DHT22;1953;51.222;6.624;2022-09-27T12:32:30;13.30;1.00
3876;DHT22;1953;51.222;6.624;2022-09-27T12:37:16;13.30;1.00
3876;DHT22;1953;51.222;6.624;2022-09-27T12:42:04;12.70;1.00
3876;DHT22;1953;51.222;6.624;2022-09-27T12:46:57;12.50;1.00
3876;DHT22;1953;51.222;6.624;2022-09-27T12:51:48;12.40;1.00
3876;DHT22;1953;51.222;6.624;2022-09-27T12:56:40;12.40;1.00
3876;DHT22;1953;51.222;6.624;2022-09-27T13:01:47;12.30;1.00
3876;DHT22;1953;51.222;6.624;2022-09-27T13:06:50;12.40;1.00
3876;DHT22;1953;51.222;6.624;2022-09-27T13:11:44;12.60;1.00
3876;DHT22;1953;51.222;6.624;2022-09-27T13:16:29;12.80;1.00
3876;DHT22;1953;51.222;6.624;2022-09-27T13:26:49;13.10;1.00
3876;DHT22;1953;51.222;6.624;2022-09-27T13:37:33;13.30;1.00
3876;DHT22;1953;51.222;6.624;2022-09-27T13:42:29;13.40;1.00
3876;DHT22;1953;51.222;6.624;2022-09-27T13:47:24;13.30;1.00
3876;DHT22;1953;51.222;6.624;2022-09-27T13:52:18;13.40;1.00
3876;DHT22;1953;51.222;6.624;2022-09-27T13:57:01;13.70;1.00
3876;DHT22;1953;51.222;6.624;2022-09-27T14:01:50;14.00;1.00
3876;DHT22;1953;51.222;6.624;2022-09-27T14:06:34;14.30;1.00
3876;DHT22;1953;51.222;6.624;2022-09-27T14:11:26;14.50;1.00
3876;DHT22;1953;51.222;6.624;2022-09-27T14:16:14;14.30;1.00
3876;DHT22;1953;51.222;6.624;2022-09-27T14:21:14;14.40;1.00
3876;DHT22;1953;51.222;6.624;2022-09-27T14:25:57;14.20;1.00
3876;DHT22;1953;51.222;6.624;2022-09-27T14:30:40;14.10;1.00
3876;DHT22;1953;51.222;6.624;2022-09-27T14:35:24;13.90;1.00
3876;DHT22;1953;51.222;6.624;2022-09-27T14:40:27;13.80;1.00
3876;DHT22;1953;51.222;6.624;2022-09-27T14:45:18;13.70;1.00
3876;DHT22;1953;51.222;6.624;2022-09-27T14:50:15;13.70;1.00
3876;DHT22;1953;51.222;6.624;2022-09-27T14:55:00;13.60;1.00
3876;DHT22;1953;51.222;6.624;2022-09-27T14:59:44;13.70;1.00
3876;DHT22;1953;51.222;6.624;2022-09-27T15:04:29;13.80;1.00
3876;DHT22;1953;51.222;6.624;2022-09-27T15:09:14;13.90;1.00
3876;DHT22;1953;51.222;6.624;2022-09-27T15:13:57;13.90;1.00
3876;DHT22;1953;51.222;6.624;2022-09-27T15:18:45;13.90;1.00
3876;DHT22;1953;51.222;6.624;2022-09-27T15:23:29;13.70;1.00
3876;DHT22;1953;51.222;6.624;2022-09-27T15:28:16;13.40;1.00
3876;DHT22;1953;51.222;6.624;2022-09-27T15:32:59;13.30;1.00
3876;DHT22;1953;51.222;6.624;2022-09-27T15:37:43;13.00;1.00
3876;DHT22;1953;51.222;6.624;2022-09-27T15:42:26;12.70;1.00
3876;DHT22;1953;51.222;6.624;2022-09-27T15:52:40;12.30;1.00
3876;DHT22;1953;51.222;6.624;2022-09-27T15:57:28;12.20;1.00
3876;DHT22;1953;51.222;6.624;2022-09-27T16:02:14;12.20;1.00
3876;DHT22;1953;51.222;6.624;2022-09-27T16:06:59;12.10;1.00
3876;DHT22;1953;51.222;6.624;2022-09-27T16:11:42;12.20;1.00
3876;DHT22;1953;51.222;6.624;2022-09-27T16:16:26;12.20;1.00
3876;DHT22;1953;51.222;6.624;2022-09-27T16:21:08;12.20;1.00
3876;DHT22;1953;51.222;6.624;2022-09-27T16:25:51;12.20;1.00
3876;DHT22;1953;51.222;6.624;2022-09-27T16:30:34;12.10;1.00
3876;DHT22;1953;51.222;6.624;2022-09-27T16:35:19;12.00;1.00
3876;DHT22;1953;51.222;6.624;2022-09-27T16:40:02;11.90;1.00
3876;DHT22;1953;51.222;6.624;2022-09-27T16:44:44;11.90;1.00
3876;DHT22;1953;51.222;6.624;2022-09-27T16:49:30;11.90;1.00
3876;DHT22;1953;51.222;6.624;2022-09-27T16:54:32;11.90;1.00
3876;DHT22;1953;51.222;6.624;2022-09-27T16:59:14;11.80;1.00
3876;DHT22;1953;51.222;6.624;2022-09-27T17:03:56;11.80;1.00
3876;DHT22;1953;51.222;6.624;2022-09-27T17:08:39;11.80;1.00
3876;DHT22;1953;51.222;6.624;2022-09-27T17:13:23;11.80;1.00
3876;DHT22;1953;51.222;6.624;2022-09-27T17:18:05;11.90;1.00
3876;DHT22;1953;51.222;6.624;2022-09-27T17:22:48;11.80;1.00
3876;DHT22;1953;51.222;6.624;2022-09-27T17:27:30;11.80;1.00
3876;DHT22;1953;51.222;6.624;2022-09-27T17:32:14;11.70;1.00
3876;DHT22;1953;51.222;6.624;2022-09-27T17:36:56;11.70;1.00
3876;DHT22;1953;51.222;6.624;2022-09-27T17:41:41;11.70;1.00
3876;DHT22;1953;51.222;6.624;2022-09-27T17:46:26;11.70;1.00
3876;DHT22;1953;51.222;6.624;2022-09-27T17:51:12;11.80;1.00
3876;DHT22;1953;51.222;6.624;2022-09-27T17:55:59;11.80;1.00
3876;DHT22;1953;51.222;6.624;2022-09-27T18:00:42;11.80;1.00
3876;DHT22;1953;51.222;6.624;2022-09-27T18:05:24;11.80;1.00
3876;DHT22;1953;51.222;6.624;2022-09-27T18:10:08;11.80;1.00
3876;DHT22;1953;51.222;6.624;2022-09-27T18:14:51;11.80;1.00
3876;DHT22;1953;51.222;6.624;2022-09-27T18:19:33;11.80;1.00
3876;DHT22;1953;51.222;6.624;2022-09-27T18:24:17;11.90;1.00
3876;DHT22;1953;51.222;6.624;2022-09-27T18:29:02;12.00;1.00
3876;DHT22;1953;51.222;6.624;2022-09-27T18:33:45;12.00;1.00
3876;DHT22;1953;51.222;6.624;2022-09-27T18:38:27;11.90;1.00
3876;DHT22;1953;51.222;6.624;2022-09-27T18:43:09;11.90;1.00
3876;DHT22;1953;51.222;6.624;2022-09-27T18:47:53;11.80;1.00
3876;DHT22;1953;51.222;6.624;2022-09-27T18:52:36;11.80;1.00
3876;DHT22;1953;51.222;6.624;2022-09-27T18:57:18;11.80;1.00
3876;DHT22;1953;51.222;6.624;2022-09-27T19:02:01;11.80;1.00
3876;DHT22;1953;51.222;6.624;2022-09-27T19:06:46;11.80;1.00
3876;DHT22;1953;51.222;6.624;2022-09-27T19:11:29;13.20;1.00
3876;DHT22;1953;51.222;6.624;2022-09-27T19:16:12;11.80;1.00
3876;DHT22;1953;51.222;6.624;2022-09-27T19:21:00;11.80;1.00
3876;DHT22;1953;51.222;6.624;2022-09-27T19:25:44;11.80;1.00
3876;DHT22;1953;51.222;6.624;2022-09-27T19:30:27;11.80;1.00
3876;DHT22;1953;51.222;6.624;2022-09-27T19:35:09;11.80;1.00
3876;DHT22;1953;51.222;6.624;2022-09-27T19:39:52;11.80;1.00
3876;DHT22;1953;51.222;6.624;2022-09-27T19:44:36;11.80;1.00
3876;DHT22;1953;51.222;6.624;2022-09-27T19:49:18;11.70;1.00
3876;DHT22;1953;51.222;6.624;2022-09-27T19:54:01;11.60;1.00
3876;DHT22;1953;51.222;6.624;2022-09-27T19:58:44;11.70;1.00
3876;DHT22;1953;51.222;6.624;2022-09-27T20:03:29;11.60;1.00
3876;DHT22;1953;51.222;6.624;2022-09-27T20:08:11;11.60;1.00
3876;DHT22;1953;51.222;6.624;2022-09-27T20:12:53;11.50;1.00
3876;DHT22;1953;51.222;6.624;2022-09-27T20:17:36;11.50;1.00
3876;DHT22;1953;51.222;6.624;2022-09-27T20:22:20;11.40;1.00
3876;DHT22;1953;51.222;6.624;2022-09-27T20:27:02;11.40;1.00
3876;DHT22;1953;51.222;6.624;2022-09-27T20:31:45;11.40;1.00
3876;DHT22;1953;51.222;6.624;2022-09-27T20:36:29;11.40;1.00
3876;DHT22;1953;51.222;6.624;2022-09-27T20:41:14;11.40;1.00
3876;DHT22;1953;51.222;6.624;2022-09-27T20:46:01;11.40;1.00
3876;DHT22;1953;51.222;6.624;2022-09-27T20:50:44;11.40;1.00
3876;DHT22;1953;51.222;6.624;2022-09-27T20:55:26;11.40;1.00
3876;DHT22;1953;51.222;6.624;2022-09-27T21:00:11;11.20;1.00
3876;DHT22;1953;51.222;6.624;2022-09-27T21:04:54;11.20;1.00
3876;DHT22;1953;51.222;6.624;2022-09-27T21:09:37;11.20;1.00
3876;DHT22;1953;51.222;6.624;2022-09-27T21:14:20;11.20;1.00
3876;DHT22;1953;51.222;6.624;2022-09-27T21:19:03;11.10;1.00
3876;DHT22;1953;51.222;6.624;2022-09-27T21:23:47;11.10;1.00
3876;DHT22;1953;51.222;6.624;2022-09-27T21:28:34;11.70;1.00
3876;DHT22;1953;51.222;6.624;2022-09-27T21:33:17;11.00;1.00
3876;DHT22;1953;51.222;6.624;2022-09-27T21:38:01;11.10;1.00
3876;DHT22;1953;51.222;6.624;2022-09-27T21:42:43;11.10;1.00
3876;DHT22;1953;51.222;6.624;2022-09-27T21:47:26;11.10;1.00
3876;DHT22;1953;51.222;6.624;2022-09-27T21:52:08;11.10;1.00
3876;DHT22;1953;51.222;6.624;2022-09-27T21:56:52;11.10;1.00
3876;DHT22;1953;51.222;6.624;2022-09-27T22:01:34;11.00;1.00
3876;DHT22;1953;51.222;6.624;2022-09-27T22:06:18;11.10;1.00
3876;DHT22;1953;51.222;6.624;2022-09-27T22:11:01;11.10;1.00
3876;DHT22;1953;51.222;6.624;2022-09-27T22:15:45;11.10;1.00
3876;DHT22;1953;51.222;6.624;2022-09-27T22:20:31;11.10;1.00
3876;DHT22;1953;51.222;6.624;2022-09-27T22:25:13;11.00;1.00
3876;DHT22;1953;51.222;6.624;2022-09-27T22:29:56;11.00;1.00
3876;DHT22;1953;51.222;6.624;2022-09-27T22:34:39;11.00;1.00
3876;DHT22;1953;51.222;6.624;2022-09-27T22:39:22;11.00;1.00
3876;DHT22;1953;51.222;6.624;2022-09-27T22:44:04;10.90;1.00
3876;DHT22;1953;51.222;6.624;2022-09-27T22:48:48;10.80;1.00
3876;DHT22;1953;51.222;6.624;2022-09-27T22:53:33;10.80;1.00
3876;DHT22;1953;51.222;6.624;2022-09-27T22:58:15;10.90;1.00
3876;DHT22;1953;51.222;6.624;2022-09-27T23:02:59;10.80;1.00
3876;DHT22;1953;51.222;6.624;2022-09-27T23:07:41;10.80;1.00
3876;DHT22;1953;51.222;6.624;2022-09-27T23:12:25;10.70;1.00
3876;DHT22;1953;51.222;6.624;2022-09-27T23:17:08;10.70;1.00
3876;DHT22;1953;51.222;6.624;2022-09-27T23:21:50;10.60;1.00
3876;DHT22;1953;51.222;6.624;2022-09-27T23:26:32;10.60;1.00
3876;DHT22;1953;51.222;6.624;2022-09-27T23:31:16;10.60;1.00
3876;DHT22;1953;51.222;6.624;2022-09-27T23:35:59;10.60;1.00
3876;DHT22;1953;51.222;6.624;2022-09-27T23:40:42;10.60;1.00
3876;DHT22;1953;51.222;6.624;2022-09-27T23:45:25;10.70;1.00
3876;DHT22;1953;51.222;6.624;2022-09-27T23:50:09;10.70;1.00
3876;DHT22;1953;51.222;6.624;2022-09-27T23:54:52;10.60;1.00
3876;DHT22;1953;51.222;6.624;2022-09-27T23:59:34;10.60;1.00
